American Canyon, California
Current Conditions -  °F | °C
As of 3:54 AM on Monday 20 Oct 2014 (Local Time) from KAPC Reporting Station
Overcast Overcast  
Wind Chill: 60°   Ceiling: 2100
Heat Index: 60°   Visibility: 10mi
Dew Point: 57°   Wind: 6mph
Humidity: 90%   Direction: 290°WNW
Pressure: 29.9"   Gusts: NA
Location:  38.17°N, 122.25°W
Report Text: KAPC 201054Z AUTO 29005KT 10SM OVC021 16/14 A2990 RMK AO2 SLP117 T01560139
Loading
Personal Weather Stations






























Interactive Weather Map
Tropical Storm Tracking
New forecast layout! Learn more

10-Day Weather Forecast

Advertisements
Track Severe Weather on mobile